Time;durP1;ratioP1;P1;durP2;ratioP2;P2;SDS_P1;SDS_P2;PMS_P1;PMS_P2;Temp;Humidity;BMP_temperature;BMP_pressure;BME280_temperature;BME280_humidity;BME280_pressure;Samples;Min_cycle;Max_cycle;Signal;HPM_P1;HPM_P2
2021/09/16 00:00:09;;;;;;;7.03;4.10;;;13.60;99.90;;;;;;4945100;29;20032;-89
2021/09/16 00:02:34;;;;;;;6.78;3.83;;;13.60;99.90;;;;;;4927024;29;20031;-89
2021/09/16 00:05:00;;;;;;;7.57;3.92;;;13.70;99.90;;;;;;4925068;29;20031;-90
2021/09/16 00:07:26;;;;;;;6.80;3.60;;;13.60;99.90;;;;;;4920390;29;20048;-88
2021/09/16 00:09:52;;;;;;;7.05;4.03;;;13.60;99.90;;;;;;4920113;29;20513;-90
2021/09/16 00:12:17;;;;;;;11.07;4.10;;;13.60;99.90;;;;;;4920462;29;20099;-90
2021/09/16 00:14:43;;;;;;;6.90;3.90;;;13.50;99.90;;;;;;4920186;29;20118;-90
2021/09/16 00:17:09;;;;;;;4.82;3.80;;;13.50;99.90;;;;;;4920248;29;20044;-90
2021/09/16 00:19:35;;;;;;;5.78;3.50;;;13.40;99.90;;;;;;4920483;29;20082;-89
2021/09/16 00:22:01;;;;;;;7.50;4.03;;;13.40;99.90;;;;;;4919876;29;20032;-89
2021/09/16 00:24:26;;;;;;;7.28;4.05;;;13.50;99.90;;;;;;4919633;29;20438;-90
2021/09/16 00:26:52;;;;;;;7.07;4.78;;;13.50;99.90;;;;;;4919808;29;20059;-90
2021/09/16 00:29:18;;;;;;;9.30;4.25;;;13.50;99.90;;;;;;4919322;29;20426;-90
2021/09/16 00:31:43;;;;;;;6.30;4.00;;;13.50;99.90;;;;;;4919693;29;20043;-91
2021/09/16 00:34:09;;;;;;;4.97;3.53;;;13.50;99.90;;;;;;4919515;29;20191;-90
2021/09/16 00:36:35;;;;;;;5.78;3.70;;;13.60;99.90;;;;;;4919546;29;20039;-90
2021/09/16 00:39:01;;;;;;;4.88;3.90;;;13.60;99.90;;;;;;4919607;29;20531;-90
2021/09/16 00:41:28;;;;;;;10.40;5.65;;;13.60;99.90;;;;;;4919658;29;20191;-89
2021/09/16 00:43:55;;;;;;;13.15;5.68;;;13.60;99.90;;;;;;4919361;29;20026;-90
2021/09/16 00:46:20;;;;;;;7.50;4.85;;;13.70;99.90;;;;;;4918907;29;20703;-90
2021/09/16 00:48:46;;;;;;;9.60;5.38;;;13.70;99.90;;;;;;4919106;29;20087;-90
2021/09/16 00:51:12;;;;;;;10.00;5.65;;;13.70;99.90;;;;;;4919019;29;20128;-91
2021/09/16 00:53:39;;;;;;;8.07;5.25;;;13.70;99.90;;;;;;4919628;29;20500;-89
2021/09/16 00:56:07;;;;;;;10.90;5.60;;;13.80;99.90;;;;;;4919420;29;20038;-90
2021/09/16 00:58:38;;;;;;;10.63;5.47;;;13.80;99.90;;;;;;4919968;29;20040;-90
2021/09/16 01:01:04;;;;;;;;;;;13.80;99.90;;;;;;4920555;29;20024;-89
2021/09/16 01:03:30;;;;;;;11.82;4.93;;;13.80;99.90;;;;;;4922892;29;19910;-91
2021/09/16 01:05:56;;;;;;;6.20;4.05;;;13.80;99.90;;;;;;4937201;29;20039;-88
2021/09/16 01:08:22;;;;;;;8.02;4.20;;;13.70;99.90;;;;;;4936922;29;20028;-89
2021/09/16 01:10:48;;;;;;;6.43;4.43;;;13.60;99.90;;;;;;4938331;29;20043;-90
2021/09/16 01:13:15;;;;;;;6.78;4.72;;;13.70;99.90;;;;;;4942295;29;20034;-89
2021/09/16 01:15:42;;;;;;;13.45;5.95;;;13.70;99.90;;;;;;4942023;29;20044;-89
2021/09/16 01:18:08;;;;;;;9.65;5.03;;;13.70;99.90;;;;;;4931902;29;20126;-89
2021/09/16 01:20:34;;;;;;;9.63;4.93;;;13.70;99.90;;;;;;4923920;29;20115;-90
2021/09/16 01:23:00;;;;;;;6.32;4.43;;;13.70;99.90;;;;;;4921922;29;20043;-89
2021/09/16 01:25:31;;;;;;;7.63;4.80;;;13.70;99.90;;;;;;4938775;29;20127;-90
2021/09/16 01:27:59;;;;;;;5.70;4.82;;;13.60;99.90;;;;;;4921592;29;20027;-89
2021/09/16 01:30:25;;;;;;;11.20;5.15;;;13.50;99.90;;;;;;4920658;29;20056;-89
2021/09/16 01:32:54;;;;;;;8.32;4.65;;;13.50;99.90;;;;;;4918972;29;20028;-90
2021/09/16 01:35:21;;;;;;;6.25;4.35;;;13.50;99.90;;;;;;4919578;29;20497;-90
2021/09/16 01:37:46;;;;;;;7.18;4.60;;;13.50;99.90;;;;;;4936543;29;20059;-91
2021/09/16 01:40:12;;;;;;;11.23;4.65;;;13.50;99.90;;;;;;4919518;29;20019;-89
2021/09/16 01:42:42;;;;;;;7.25;4.28;;;13.50;99.90;;;;;;4922967;29;20027;-89
2021/09/16 01:45:13;;;;;;;9.83;4.80;;;13.50;99.90;;;;;;4923761;29;20054;-89
2021/09/16 01:47:39;;;;;;;8.07;5.28;;;13.40;99.90;;;;;;4923678;29;20023;-88
2021/09/16 01:50:05;;;;;;;8.88;4.60;;;13.40;99.90;;;;;;4923480;29;20489;-91
2021/09/16 01:52:30;;;;;;;9.45;5.10;;;13.40;99.90;;;;;;4923310;29;20031;-87
2021/09/16 01:54:56;;;;;;;5.65;4.03;;;13.40;99.90;;;;;;4923591;29;20402;-90
2021/09/16 01:57:22;;;;;;;8.57;5.03;;;13.40;99.90;;;;;;4922956;29;20414;-89
2021/09/16 01:59:47;;;;;;;7.10;4.72;;;13.50;99.90;;;;;;4923445;29;20055;-89
2021/09/16 02:02:13;;;;;;;9.00;4.90;;;13.40;99.90;;;;;;4923132;29;20031;-90
2021/09/16 02:04:38;;;;;;;8.98;4.95;;;13.40;99.90;;;;;;4922575;29;20028;-89
2021/09/16 02:07:04;;;;;;;11.60;5.22;;;13.40;99.90;;;;;;4922326;29;20038;-90
2021/09/16 02:09:30;;;;;;;7.93;5.47;;;13.50;99.90;;;;;;4921629;29;20023;-90
2021/09/16 02:11:55;;;;;;;7.43;4.40;;;13.50;99.90;;;;;;4921672;29;20032;-90
2021/09/16 02:14:21;;;;;;;9.02;4.90;;;13.50;99.90;;;;;;4921376;29;20023;-89
2021/09/16 02:16:46;;;;;;;9.40;5.43;;;13.50;99.90;;;;;;4921405;29;20054;-89
2021/09/16 02:19:12;;;;;;;7.55;4.72;;;13.40;99.90;;;;;;4921852;29;20036;-89
2021/09/16 02:21:38;;;;;;;11.48;4.95;;;13.50;99.90;;;;;;4922238;29;20130;-91
2021/09/16 02:24:04;;;;;;;6.75;4.43;;;13.50;99.90;;;;;;4922171;29;20023;-90
2021/09/16 02:26:29;;;;;;;6.32;4.20;;;13.50;99.90;;;;;;4921954;29;20027;-91
2021/09/16 02:28:55;;;;;;;7.03;4.50;;;13.60;99.90;;;;;;4921928;29;20027;-90
2021/09/16 02:31:21;;;;;;;8.02;4.53;;;13.60;99.90;;;;;;4922105;29;20524;-90
2021/09/16 02:33:46;;;;;;;8.07;4.63;;;13.70;99.90;;;;;;4939014;29;20087;-91
2021/09/16 02:36:12;;;;;;;8.90;4.90;;;13.70;99.90;;;;;;4921562;29;20406;-90
2021/09/16 02:38:39;;;;;;;9.55;5.15;;;13.70;99.90;;;;;;4921259;29;20135;-90
2021/09/16 02:41:05;;;;;;;9.75;4.78;;;13.70;99.90;;;;;;4921570;29;20032;-90
2021/09/16 02:43:31;;;;;;;7.20;5.00;;;13.70;99.90;;;;;;4921839;29;20024;-89
2021/09/16 02:45:57;;;;;;;7.50;4.15;;;13.70;99.90;;;;;;4921925;29;20059;-90
2021/09/16 02:48:22;;;;;;;7.90;4.57;;;13.70;99.90;;;;;;4921949;29;20059;-90
2021/09/16 02:50:48;;;;;;;6.75;4.57;;;13.70;99.90;;;;;;4921771;29;20028;-91
2021/09/16 02:53:14;;;;;;;14.10;6.22;;;13.70;99.90;;;;;;4921093;29;20090;-89
2021/09/16 02:55:40;;;;;;;10.30;5.35;;;13.70;99.90;;;;;;4921335;29;20036;-90
2021/09/16 02:58:06;;;;;;;11.25;5.65;;;13.80;99.90;;;;;;4921694;29;20281;-90
2021/09/16 03:00:32;;;;;;;9.02;6.18;;;13.80;99.90;;;;;;4921640;29;20115;-90
2021/09/16 03:02:58;;;;;;;10.55;5.35;;;13.80;99.90;;;;;;4921428;29;20397;-90
2021/09/16 03:05:24;;;;;;;8.93;5.18;;;13.80;99.90;;;;;;4921428;29;20090;-90
2021/09/16 03:07:50;;;;;;;9.77;5.38;;;13.80;99.90;;;;;;4921365;29;20040;-90
2021/09/16 03:10:15;;;;;;;8.45;5.25;;;13.70;99.90;;;;;;4921357;29;20035;-90
2021/09/16 03:12:42;;;;;;;9.60;5.30;;;13.70;99.90;;;;;;4921617;29;20118;-90
2021/09/16 03:15:09;;;;;;;9.35;4.88;;;13.60;99.90;;;;;;4921283;29;20024;-90
2021/09/16 03:17:35;;;;;;;8.13;5.63;;;13.60;99.90;;;;;;4920956;29;20051;-90
2021/09/16 03:20:02;;;;;;;9.25;5.82;;;13.60;99.90;;;;;;4921192;29;20120;-90
2021/09/16 03:22:27;;;;;;;11.68;6.25;;;13.60;99.90;;;;;;4920675;29;20122;-89
2021/09/16 03:24:53;;;;;;;8.98;5.75;;;13.60;99.90;;;;;;4920641;29;20055;-90
2021/09/16 03:27:18;;;;;;;11.07;6.25;;;13.60;99.90;;;;;;4920870;29;20020;-90
2021/09/16 03:29:44;;;;;;;13.70;6.30;;;13.60;99.90;;;;;;4920785;29;20028;-90
2021/09/16 03:32:10;;;;;;;10.10;5.53;;;13.60;99.90;;;;;;4920614;29;20075;-91
2021/09/16 03:34:35;;;;;;;7.85;5.15;;;13.60;99.90;;;;;;4937647;29;20042;-90
2021/09/16 03:37:01;;;;;;;8.38;5.45;;;13.60;99.90;;;;;;4920820;29;20392;-89
2021/09/16 03:39:27;;;;;;;9.88;5.28;;;13.60;99.90;;;;;;4920703;29;20193;-90
2021/09/16 03:41:52;;;;;;;8.18;5.32;;;13.60;99.90;;;;;;4921363;29;20027;-91
2021/09/16 03:44:18;;;;;;;9.20;5.30;;;13.60;99.90;;;;;;4922274;29;20028;-89
2021/09/16 03:46:44;;;;;;;10.45;5.20;;;13.60;99.90;;;;;;4921652;29;20024;-90
2021/09/16 03:49:09;;;;;;;10.40;5.85;;;13.60;99.90;;;;;;4944478;29;20056;-89
2021/09/16 03:51:35;;;;;;;8.68;5.60;;;13.60;99.90;;;;;;4933275;29;20469;-88
2021/09/16 03:54:01;;;;;;;13.35;6.65;;;13.60;99.90;;;;;;4932060;29;20074;-90
2021/09/16 03:56:26;;;;;;;15.60;6.07;;;13.60;99.90;;;;;;4924949;29;20040;-91
2021/09/16 03:58:52;;;;;;;8.93;5.70;;;13.60;99.90;;;;;;4924227;29;20024;-90
2021/09/16 04:01:18;;;;;;;13.30;6.43;;;13.70;99.90;;;;;;4923319;29;20052;-91
2021/09/16 04:03:43;;;;;;;14.35;6.47;;;13.70;99.90;;;;;;4920305;29;20024;-90
2021/09/16 04:06:09;;;;;;;9.85;6.22;;;13.70;99.90;;;;;;4921206;29;20553;-91
2021/09/16 04:08:34;;;;;;;12.50;6.78;;;13.70;99.90;;;;;;4920604;29;20036;-91
2021/09/16 04:11:00;;;;;;;14.05;7.00;;;13.60;99.90;;;;;;4937323;29;20026;-90
2021/09/16 04:13:26;;;;;;;14.52;8.02;;;13.70;99.90;;;;;;4920403;29;20420;-90
2021/09/16 04:15:51;;;;;;;14.32;9.13;;;13.70;99.90;;;;;;4920858;29;20031;-89
2021/09/16 04:18:17;;;;;;;16.77;8.32;;;13.70;99.90;;;;;;4920375;29;20028;-90
2021/09/16 04:20:42;;;;;;;19.90;10.55;;;13.70;99.90;;;;;;4937080;29;20482;-91
2021/09/16 04:23:08;;;;;;;19.63;10.63;;;13.70;99.90;;;;;;4919995;29;20565;-90
2021/09/16 04:25:34;;;;;;;16.35;10.32;;;13.80;99.90;;;;;;4920016;29;20027;-90
2021/09/16 04:27:59;;;;;;;20.17;12.00;;;13.80;99.90;;;;;;4920197;29;20031;-90
2021/09/16 04:30:25;;;;;;;19.50;9.85;;;13.80;99.90;;;;;;4920017;29;20130;-90
2021/09/16 04:32:51;;;;;;;19.85;10.30;;;13.80;99.90;;;;;;4919683;29;20035;-90
2021/09/16 04:35:16;;;;;;;24.40;11.82;;;13.80;99.90;;;;;;4919786;29;20220;-90
2021/09/16 04:37:42;;;;;;;23.88;11.88;;;13.80;99.90;;;;;;4919377;29;20067;-89
2021/09/16 04:40:08;;;;;;;19.40;11.00;;;13.80;99.90;;;;;;4919872;29;20027;-89
2021/09/16 04:42:34;;;;;;;19.70;10.48;;;13.70;99.90;;;;;;4919783;29;20028;-90
2021/09/16 04:44:59;;;;;;;16.88;10.05;;;13.70;99.90;;;;;;4919536;29;20024;-89
2021/09/16 04:47:25;;;;;;;15.82;10.10;;;13.60;99.90;;;;;;4919352;29;20434;-90
2021/09/16 04:49:51;;;;;;;21.17;10.35;;;13.60;99.90;;;;;;4918889;29;20123;-89
2021/09/16 04:52:17;;;;;;;16.88;9.85;;;13.60;99.90;;;;;;4919509;29;20110;-89
2021/09/16 04:54:42;;;;;;;20.85;10.65;;;13.60;99.90;;;;;;4919931;29;20036;-90
2021/09/16 04:57:08;;;;;;;19.05;10.07;;;13.50;99.90;;;;;;4920103;29;20048;-89
2021/09/16 04:59:34;;;;;;;22.48;12.00;;;13.60;99.90;;;;;;4919722;29;20113;-89
2021/09/16 05:02:00;;;;;;;19.80;11.50;;;13.60;99.90;;;;;;4936207;29;20032;-89
2021/09/16 05:04:26;;;;;;;21.52;10.93;;;13.50;99.90;;;;;;4919195;29;20040;-90
2021/09/16 05:06:51;;;;;;;19.40;11.27;;;13.50;99.90;;;;;;4919303;29;20036;-91
2021/09/16 05:09:17;;;;;;;22.55;10.95;;;13.50;99.90;;;;;;4919443;29;20032;-90
2021/09/16 05:11:43;;;;;;;23.23;12.25;;;13.50;99.90;;;;;;4919661;29;20032;-91
2021/09/16 05:14:09;;;;;;;20.20;11.50;;;13.50;99.90;;;;;;4919405;29;20071;-91
2021/09/16 05:16:35;;;;;;;20.20;11.00;;;13.50;99.90;;;;;;4922931;29;20074;-89
2021/09/16 05:19:02;;;;;;;24.05;12.05;;;13.50;99.90;;;;;;4923138;29;20028;-91
2021/09/16 05:21:28;;;;;;;24.05;12.45;;;13.50;99.90;;;;;;4923096;29;20031;-91
2021/09/16 05:23:53;;;;;;;24.52;13.73;;;13.50;99.90;;;;;;4922850;29;20152;-90
2021/09/16 05:26:19;;;;;;;23.33;12.48;;;13.50;99.90;;;;;;4923120;29;20027;-90
2021/09/16 05:28:45;;;;;;;22.27;12.90;;;13.40;99.90;;;;;;4923189;29;20031;-89
2021/09/16 05:31:11;;;;;;;24.23;13.00;;;13.40;99.90;;;;;;4923201;29;20035;-89
2021/09/16 05:33:37;;;;;;;22.80;12.75;;;13.40;99.90;;;;;;4922815;29;20102;-89
2021/09/16 05:36:04;;;;;;;23.15;12.95;;;13.40;99.90;;;;;;4922249;29;20489;-90
2021/09/16 05:38:30;;;;;;;27.52;11.98;;;13.40;99.90;;;;;;4921437;29;20055;-89
2021/09/16 05:40:56;;;;;;;26.80;11.55;;;13.40;99.90;;;;;;4938363;29;20425;-89
2021/09/16 05:43:22;;;;;;;22.52;11.75;;;13.40;99.90;;;;;;4921429;29;20059;-89
2021/09/16 05:45:47;;;;;;;25.98;13.88;;;13.40;99.90;;;;;;4921847;29;20047;-89
2021/09/16 05:48:13;;;;;;;27.27;12.65;;;13.40;99.90;;;;;;4921203;29;20034;-91
2021/09/16 05:50:39;;;;;;;26.73;11.52;;;13.40;99.90;;;;;;4921313;29;20031;-90
2021/09/16 05:53:05;;;;;;;20.10;11.10;;;13.40;99.90;;;;;;4921537;29;20059;-91
2021/09/16 05:55:30;;;;;;;22.15;11.45;;;13.40;99.90;;;;;;4921153;29;20063;-89
2021/09/16 05:57:56;;;;;;;22.02;12.70;;;13.40;99.90;;;;;;4921458;29;20091;-90
2021/09/16 06:00:23;;;;;;;23.38;11.60;;;13.40;99.90;;;;;;4921202;29;20058;-92
2021/09/16 06:02:49;;;;;;;24.65;12.02;;;13.40;99.90;;;;;;4920975;29;20090;-91
2021/09/16 06:05:15;;;;;;;25.23;13.35;;;13.40;99.90;;;;;;4920820;29;20492;-89
2021/09/16 06:07:41;;;;;;;24.27;13.48;;;13.40;99.90;;;;;;4920985;29;20110;-90
2021/09/16 06:10:07;;;;;;;24.02;11.82;;;13.40;99.90;;;;;;4920883;29;20600;-90
2021/09/16 06:12:33;;;;;;;23.58;12.52;;;13.50;99.90;;;;;;4921218;29;20175;-89
2021/09/16 06:14:59;;;;;;;23.50;13.18;;;13.50;99.90;;;;;;4921246;29;20478;-91
2021/09/16 06:17:25;;;;;;;30.27;14.55;;;13.60;99.90;;;;;;4921202;29;20078;-90
2021/09/16 06:19:50;;;;;;;28.80;14.05;;;13.60;99.90;;;;;;4921152;29;20020;-91
2021/09/16 06:22:17;;;;;;;30.65;13.70;;;13.60;99.90;;;;;;4920443;29;20031;-89
2021/09/16 06:24:43;;;;;;;25.77;13.32;;;13.70;99.90;;;;;;4931394;29;20090;-89
2021/09/16 06:27:09;;;;;;;24.25;12.95;;;13.70;99.90;;;;;;4919882;29;20024;-89
2021/09/16 06:29:34;;;;;;;26.05;11.88;;;13.70;99.90;;;;;;4920312;29;20042;-90
2021/09/16 06:32:00;;;;;;;25.55;14.20;;;13.70;99.90;;;;;;4920271;29;20028;-90
2021/09/16 06:34:25;;;;;;;32.67;14.95;;;13.80;99.90;;;;;;4919948;29;20024;-89
2021/09/16 06:36:51;;;;;;;29.77;14.48;;;13.80;99.90;;;;;;4919959;29;20051;-90
2021/09/16 06:39:17;;;;;;;22.75;13.23;;;13.80;99.90;;;;;;4937382;29;20575;-89
2021/09/16 06:41:43;;;;;;;22.65;13.00;;;13.90;99.90;;;;;;4919921;29;20394;-90
2021/09/16 06:44:09;;;;;;;24.65;12.40;;;13.80;99.90;;;;;;4921251;29;20070;-91
2021/09/16 06:46:34;;;;;;;21.05;11.50;;;13.80;99.90;;;;;;4920239;29;20059;-89
2021/09/16 06:49:01;;;;;;;21.77;12.05;;;13.80;99.90;;;;;;4922109;29;20031;-90
2021/09/16 06:51:27;;;;;;;18.45;10.23;;;13.80;99.90;;;;;;4923450;29;20251;-91
2021/09/16 06:53:54;;;;;;;23.65;12.30;;;13.80;99.90;;;;;;4938548;29;20153;-89
2021/09/16 06:56:20;;;;;;;23.88;11.80;;;13.90;99.90;;;;;;4919848;29;20035;-90
2021/09/16 06:58:45;;;;;;;28.65;13.18;;;13.90;99.90;;;;;;4919941;29;20020;-91
2021/09/16 07:01:11;;;;;;;21.10;12.80;;;14.00;99.90;;;;;;4919949;29;20031;-90
2021/09/16 07:03:37;;;;;;;23.63;12.77;;;14.10;99.90;;;;;;4921006;29;20102;-91
2021/09/16 07:06:02;;;;;;;27.42;16.42;;;14.10;99.90;;;;;;4921331;29;20020;-90
2021/09/16 07:08:28;;;;;;;28.33;16.73;;;14.20;99.90;;;;;;4921228;29;20030;-91
2021/09/16 07:10:54;;;;;;;23.60;13.00;;;14.20;99.90;;;;;;4920476;29;20032;-90
2021/09/16 07:13:19;;;;;;;23.70;14.15;;;14.30;99.90;;;;;;4921296;29;20389;-88
2021/09/16 07:15:45;;;;;;;29.20;16.77;;;14.40;99.90;;;;;;4919964;29;20020;-88
2021/09/16 07:18:11;;;;;;;30.55;16.70;;;14.50;99.90;;;;;;4920058;29;20032;-89
2021/09/16 07:20:36;;;;;;;25.30;15.27;;;14.50;99.90;;;;;;4920769;29;20421;-91
2021/09/16 07:23:02;;;;;;;24.50;14.88;;;14.50;99.90;;;;;;4920645;29;20036;-90
2021/09/16 07:25:28;;;;;;;32.35;16.13;;;14.60;99.90;;;;;;4923584;29;20024;-90
2021/09/16 07:27:53;;;;;;;33.92;16.55;;;14.60;99.90;;;;;;4939787;29;20027;-90
2021/09/16 07:30:19;;;;;;;29.85;15.68;;;14.60;99.90;;;;;;4940614;29;20034;-90
2021/09/16 07:32:45;;;;;;;29.05;16.48;;;14.70;99.90;;;;;;4940253;29;20115;-91
2021/09/16 07:35:11;;;;;;;33.15;18.23;;;14.80;99.90;;;;;;4939928;29;20034;-89
2021/09/16 07:37:37;;;;;;;39.03;21.45;;;14.80;99.90;;;;;;4922783;29;20130;-90
2021/09/16 07:40:03;;;;;;;34.30;20.38;;;14.90;99.90;;;;;;4920565;29;20477;-90
2021/09/16 07:42:29;;;;;;;33.10;18.73;;;15.00;99.90;;;;;;4921013;29;20032;-90
2021/09/16 07:44:55;;;;;;;38.70;21.35;;;15.10;99.90;;;;;;4938233;29;20450;-90
2021/09/16 07:47:20;;;;;;;43.33;22.58;;;15.20;99.90;;;;;;4928374;29;20031;-90
2021/09/16 07:49:47;;;;;;;37.97;21.52;;;15.20;99.90;;;;;;4929509;29;20024;-90
2021/09/16 07:52:13;;;;;;;39.22;21.27;;;15.30;99.90;;;;;;4928420;29;20027;-91
2021/09/16 07:54:39;;;;;;;40.08;21.48;;;15.30;99.90;;;;;;4925204;29;20032;-91
2021/09/16 07:57:05;;;;;;;36.78;20.20;;;15.40;99.90;;;;;;4909893;29;20051;-91
2021/09/16 07:59:31;;;;;;;40.17;22.80;;;15.50;99.90;;;;;;4916490;29;20028;-92
2021/09/16 08:01:57;;;;;;;35.63;20.23;;;15.60;99.90;;;;;;4936363;29;20027;-92
2021/09/16 08:04:23;;;;;;;30.85;17.92;;;15.60;99.90;;;;;;4919482;29;20024;-91
2021/09/16 08:06:49;;;;;;;40.40;20.00;;;15.60;99.90;;;;;;4920009;29;20033;-93
2021/09/16 08:09:14;;;;;;;39.13;21.88;;;15.70;99.90;;;;;;4919865;29;20026;-93
2021/09/16 08:11:40;;;;;;;29.52;18.00;;;15.80;99.90;;;;;;4919708;29;20024;-91
2021/09/16 08:14:07;;;;;;;39.00;20.67;;;15.80;99.90;;;;;;4920300;29;20051;-93
2021/09/16 08:16:33;;;;;;;35.45;17.85;;;15.90;99.90;;;;;;4921714;29;20122;-91
2021/09/16 08:18:58;;;;;;;37.42;19.50;;;16.00;99.90;;;;;;4920952;29;20442;-91
2021/09/16 08:21:24;;;;;;;40.38;19.90;;;16.10;99.90;;;;;;4922882;29;20028;-92
2021/09/16 08:23:51;;;;;;;26.85;16.98;;;16.20;99.90;;;;;;4921089;29;20461;-92
2021/09/16 08:26:16;;;;;;;30.23;16.88;;;16.30;99.90;;;;;;4920850;29;20047;-91
2021/09/16 08:33:53;;;;;;;29.17;16.65;;;16.60;99.90;;;;;;5347674;23;20051;-95
2021/09/16 08:36:19;;;;;;;31.38;18.33;;;16.60;99.90;;;;;;4930331;29;20035;-94
2021/09/16 08:38:45;;;;;;;32.10;17.55;;;16.70;99.90;;;;;;4925886;29;20039;-95
2021/09/16 08:41:10;;;;;;;31.33;16.05;;;16.70;99.90;;;;;;4930115;29;20019;-94
2021/09/16 08:43:38;;;;;;;29.52;15.60;;;16.70;99.90;;;;;;4939562;29;20022;-92
2021/09/16 08:46:05;;;;;;;30.58;14.93;;;16.80;99.90;;;;;;4936802;29;20051;-94
2021/09/16 08:48:31;;;;;;;30.42;15.07;;;16.80;99.90;;;;;;4928021;29;20059;-93
2021/09/16 08:50:57;;;;;;;27.55;15.38;;;16.80;99.90;;;;;;4931842;29;20449;-94
2021/09/16 08:53:26;;;;;;;30.08;15.05;;;16.80;99.90;;;;;;4918143;29;20059;-94
2021/09/16 08:55:53;;;;;;;29.00;14.75;;;16.80;99.90;;;;;;4935196;29;20036;-94
2021/09/16 08:58:22;;;;;;;29.92;15.70;;;16.80;99.90;;;;;;4918910;29;20042;-94
2021/09/16 09:00:48;;;;;;;29.20;16.45;;;16.80;99.90;;;;;;4917944;29;20026;-95
2021/09/16 09:03:13;;;;;;;28.33;13.25;;;16.80;99.90;;;;;;4918453;29;20024;-93
2021/09/16 09:05:41;;;;;;;26.10;13.77;;;16.80;99.90;;;;;;4918498;29;20051;-95
2021/09/16 09:08:07;;;;;;;22.85;13.07;;;16.80;99.90;;;;;;4918308;29;20050;-94
2021/09/16 09:10:40;;;;;;;24.33;13.77;;;16.90;99.90;;;;;;4918747;29;20111;-93
2021/09/16 09:13:20;;;;;;;23.27;12.02;;;16.90;99.90;;;;;;4917893;29;20035;-91
2021/09/16 09:15:48;;;;;;;17.58;10.60;;;16.90;99.90;;;;;;4935079;29;20023;-91
2021/09/16 09:18:18;;;;;;;19.55;11.20;;;17.00;99.90;;;;;;4918015;29;20035;-95
2021/09/16 09:20:59;;;;;;;20.50;10.70;;;16.90;99.90;;;;;;4918310;29;20031;-95
2021/09/16 09:23:29;;;;;;;23.38;12.77;;;16.90;99.90;;;;;;4918299;29;20028;-95
2021/09/16 09:25:56;;;;;;;22.17;12.00;;;16.90;99.90;;;;;;4917714;29;20032;-94
2021/09/16 09:28:30;;;;;;;16.13;10.10;;;17.00;99.90;;;;;;4935892;29;20366;-92
2021/09/16 09:30:56;;;;;;;18.45;10.10;;;17.10;99.90;;;;;;4917193;29;20024;-93
2021/09/16 09:33:32;;;;;;;17.10;9.35;;;17.30;99.90;;;;;;4918276;29;20553;-94
2021/09/16 09:36:11;;;;;;;16.42;9.40;;;17.40;99.90;;;;;;4910269;29;20035;-94
2021/09/16 09:38:47;;;;;;;17.85;10.02;;;17.50;99.90;;;;;;4917073;29;20032;-93
2021/09/16 09:41:22;;;;;;;15.40;9.82;;;17.80;99.90;;;;;;4917601;29;20087;-93
2021/09/16 09:46:26;;;;;;;14.32;9.30;;;18.10;99.90;;;;;;5339882;23;20413;-91
2021/09/16 09:49:00;;;;;;;15.95;8.90;;;18.30;99.90;;;;;;4944006;29;20031;-94
2021/09/16 09:51:42;;;;;;;13.32;8.57;;;18.50;99.90;;;;;;4958101;28;20090;-95
2021/09/16 09:54:24;;;;;;;15.38;8.82;;;18.80;99.90;;;;;;4948793;28;20031;-93
2021/09/16 09:57:12;;;;;;;14.90;8.30;;;19.10;99.90;;;;;;5343084;23;20059;-89
2021/09/16 10:00:08;;;;;;;12.27;6.53;;;19.40;99.90;;;;;;4958002;28;20034;-92
2021/09/16 10:02:43;;;;;;;10.95;7.32;;;19.80;99.90;;;;;;4938199;28;20023;-93
2021/09/16 10:05:38;;;;;;;13.48;7.10;;;19.90;99.90;;;;;;4922775;29;20035;-93
2021/09/16 10:08:10;;;;;;;12.63;7.32;;;20.00;99.90;;;;;;4905643;29;20086;-91
2021/09/16 10:10:43;;;;;;;12.70;8.05;;;19.90;99.90;;;;;;4920905;29;20030;-93
2021/09/16 10:13:17;;;;;;;10.68;7.07;;;19.80;99.90;;;;;;4919377;29;20090;-94
2021/09/16 10:15:47;;;;;;;11.38;7.53;;;19.70;99.90;;;;;;4920165;29;20050;-93
2021/09/16 10:18:13;;;;;;;11.37;7.00;;;19.70;99.90;;;;;;4920617;29;20106;-94
2021/09/16 10:20:39;;;;;;;11.38;7.57;;;19.80;99.90;;;;;;4922343;29;20095;-94
2021/09/16 10:23:07;;;;;;;11.48;7.25;;;19.90;99.90;;;;;;4927953;29;20115;-94
2021/09/16 10:25:33;;;;;;;10.02;6.72;;;20.10;99.90;;;;;;4929482;29;20036;-92
2021/09/16 10:28:05;;;;;;;8.93;5.88;;;20.30;99.90;;;;;;4921633;29;20111;-93
2021/09/16 10:30:37;;;;;;;9.57;6.00;;;20.60;99.70;;;;;;4921122;29;20051;-92
2021/09/16 10:33:09;;;;;;;10.98;5.50;;;20.90;98.80;;;;;;4932201;29;20540;-93
2021/09/16 10:35:43;;;;;;;6.72;4.93;;;21.10;97.40;;;;;;4931733;29;20079;-92
2021/09/16 10:38:28;;;;;;;7.90;5.20;;;21.30;96.40;;;;;;4946439;29;20035;-94
2021/09/16 10:41:09;;;;;;;6.97;4.80;;;21.60;95.50;;;;;;4930133;29;20032;-95
2021/09/16 10:43:35;;;;;;;5.57;3.95;;;21.70;93.70;;;;;;4931234;29;20031;-94
2021/09/16 10:46:33;;;;;;;5.38;3.50;;;21.90;93.40;;;;;;4931518;29;20027;-93
2021/09/16 10:49:21;;;;;;;5.93;4.22;;;22.20;92.60;;;;;;4948034;29;20038;-93
2021/09/16 10:51:49;;;;;;;8.55;3.85;;;22.60;91.40;;;;;;4927850;29;20020;-93
2021/09/16 10:54:39;;;;;;;5.20;3.85;;;22.90;90.60;;;;;;4929525;29;20083;-93
2021/09/16 10:57:38;;;;;;;5.18;3.10;;;23.10;88.10;;;;;;4937140;29;20058;-92
2021/09/16 11:00:09;;;;;;;3.75;2.95;;;23.20;85.80;;;;;;4923254;29;20430;-93
2021/09/16 11:02:43;;;;;;;5.40;2.90;;;23.10;83.00;;;;;;4919936;29;20499;-93
2021/09/16 11:05:14;;;;;;;2.92;2.25;;;23.10;83.10;;;;;;4921055;29;20082;-94
2021/09/16 11:07:45;;;;;;;4.53;2.25;;;23.20;81.10;;;;;;4921716;29;20062;-92
2021/09/16 11:10:20;;;;;;;3.13;1.83;;;23.00;79.60;;;;;;4921511;29;20035;-92
2021/09/16 11:13:28;;;;;;;3.90;2.20;;;22.70;79.30;;;;;;4920778;29;20039;-93
2021/09/16 11:15:54;;;;;;;3.22;2.50;;;22.60;79.80;;;;;;4916100;29;20032;-92
2021/09/16 11:18:21;;;;;;;3.17;2.42;;;22.60;79.90;;;;;;4921037;29;20031;-93
2021/09/16 11:20:53;;;;;;;5.05;2.80;;;22.50;80.00;;;;;;4921030;29;20028;-92
2021/09/16 11:23:19;;;;;;;5.30;3.70;;;22.30;80.60;;;;;;4924886;29;20036;-91
2021/09/16 11:25:47;;;;;;;6.43;3.53;;;22.20;81.20;;;;;;4921043;29;20059;-92
2021/09/16 11:28:14;;;;;;;5.45;3.85;;;22.20;81.90;;;;;;4921432;29;20063;-92
2021/09/16 11:30:41;;;;;;;7.35;4.63;;;22.10;82.30;;;;;;4921021;29;20058;-93
2021/09/16 11:33:16;;;;;;;3.90;2.90;;;22.10;82.60;;;;;;4921474;29;20070;-92
2021/09/16 11:35:42;;;;;;;4.38;3.10;;;22.10;82.70;;;;;;4918149;29;20020;-92
2021/09/16 11:38:09;;;;;;;3.67;3.00;;;22.10;82.10;;;;;;4922692;29;20067;-91
2021/09/16 11:40:40;;;;;;;4.82;3.75;;;21.90;81.80;;;;;;4929697;29;20016;-92
2021/09/16 11:43:08;;;;;;;4.75;3.25;;;21.80;81.90;;;;;;4930899;29;20121;-93
2021/09/16 11:45:36;;;;;;;6.32;3.30;;;21.70;82.90;;;;;;4938996;29;20112;-91
2021/09/16 11:48:16;;;;;;;4.00;3.10;;;21.90;83.40;;;;;;4942192;29;20087;-91
2021/09/16 11:50:53;;;;;;;4.03;3.03;;;22.20;83.10;;;;;;4941043;29;20035;-92
2021/09/16 11:53:24;;;;;;;3.65;2.90;;;22.50;82.40;;;;;;4936228;29;20066;-93
2021/09/16 11:55:52;;;;;;;7.30;4.25;;;22.70;81.50;;;;;;4938263;29;20028;-92
2021/09/16 11:58:30;;;;;;;7.75;3.60;;;22.90;80.90;;;;;;4936654;29;20052;-94
2021/09/16 12:01:06;;;;;;;7.07;4.95;;;23.00;80.40;;;;;;4933088;29;20032;-92
2021/09/16 12:03:37;;;;;;;8.85;6.68;;;23.00;80.10;;;;;;4920619;29;20078;-92
2021/09/16 12:06:11;;;;;;;7.88;5.93;;;23.00;79.00;;;;;;4920426;29;20119;-92
2021/09/16 12:08:44;;;;;;;10.25;6.35;;;23.10;78.40;;;;;;4920211;29;20024;-91
2021/09/16 12:11:09;;;;;;;19.27;7.15;;;23.10;77.20;;;;;;4920403;29;20053;-92
2021/09/16 12:13:50;;;;;;;7.63;5.78;;;23.10;77.70;;;;;;4920065;29;20493;-92
2021/09/16 12:16:18;;;;;;;10.43;6.30;;;23.10;76.50;;;;;;4919891;29;20031;-92
2021/09/16 12:18:56;;;;;;;9.00;6.03;;;23.10;76.20;;;;;;4917328;29;20027;-94
2021/09/16 12:21:32;;;;;;;7.70;5.50;;;23.10;75.70;;;;;;4907824;29;20039;-93
2021/09/16 12:24:05;;;;;;;6.30;5.00;;;23.10;75.90;;;;;;4927868;28;20066;-95
2021/09/16 12:26:35;;;;;;;6.38;4.75;;;23.40;76.00;;;;;;4938654;29;20030;-93
2021/09/16 12:29:15;;;;;;;6.65;4.65;;;23.70;75.20;;;;;;4941484;29;20028;-92
2021/09/16 12:31:46;;;;;;;6.23;4.20;;;24.20;74.20;;;;;;4939155;29;20122;-94
2021/09/16 12:34:12;;;;;;;5.53;4.20;;;24.70;73.00;;;;;;4939360;29;20760;-95
2021/09/16 12:36:56;;;;;;;5.50;3.90;;;25.00;71.70;;;;;;4956481;28;20110;-94
2021/09/16 12:39:23;;;;;;;6.57;4.28;;;25.20;70.10;;;;;;4943048;29;20027;-94
2021/09/16 12:41:57;;;;;;;5.35;3.38;;;25.20;68.30;;;;;;4942358;29;20035;-93
2021/09/16 12:44:29;;;;;;;5.78;3.78;;;25.10;68.10;;;;;;4946124;29;20024;-93
2021/09/16 12:46:57;;;;;;;4.10;3.45;;;25.20;68.30;;;;;;4945015;28;20114;-93
2021/09/16 12:49:32;;;;;;;4.70;3.70;;;25.40;68.10;;;;;;4928603;29;20122;-94